createdAt,value
2019-03-27T00:02:18.965Z,67.37
2019-03-27T00:04:50.558Z,67.52
2019-03-27T00:07:21.962Z,67.77
2019-03-27T00:09:53.189Z,68.02
2019-03-27T00:12:24.543Z,68.19
2019-03-27T00:14:55.983Z,68.42
2019-03-27T00:17:27.448Z,68.41
2019-03-27T00:19:58.659Z,68.58
2019-03-27T00:22:29.900Z,68.57
2019-03-27T00:25:01.319Z,68.57
2019-03-27T00:27:32.756Z,68.67
2019-03-27T00:30:06.247Z,68.71
2019-03-27T00:32:37.489Z,68.64
2019-03-27T00:35:08.828Z,68.77
2019-03-27T00:37:41.010Z,68.87
2019-03-27T00:40:12.325Z,68.98
2019-03-27T00:42:44.598Z,69.30
2019-03-27T00:45:26.530Z,69.67
2019-03-27T00:47:48.914Z,69.55
2019-03-27T00:50:20.325Z,69.40
2019-03-27T00:52:58.425Z,69.54
2019-03-27T00:55:29.884Z,69.82
2019-03-27T00:58:01.403Z,70.25
2019-03-27T01:00:48.022Z,70.31
2019-03-27T01:03:19.493Z,70.78
2019-03-27T01:05:50.700Z,70.90
2019-03-27T01:08:23.128Z,70.58
2019-03-27T01:10:54.499Z,70.91
2019-03-27T01:13:25.874Z,71.24
2019-03-27T01:15:56.957Z,70.84
2019-03-27T01:18:28.240Z,70.67
2019-03-27T01:20:59.487Z,70.55
2019-03-27T01:23:32.440Z,70.68
2019-03-27T01:26:03.541Z,70.86
2019-03-27T01:28:35.166Z,70.94
2019-03-27T01:31:06.612Z,70.96
2019-03-27T01:33:37.873Z,71.02
2019-03-27T01:36:08.882Z,70.83
2019-03-27T01:38:40.149Z,71.29
2019-03-27T01:41:11.626Z,71.53
2019-03-27T01:43:43.747Z,71.53
2019-03-27T01:46:14.786Z,71.62
2019-03-27T01:48:45.989Z,71.79
2019-03-27T01:51:17.245Z,71.66
2019-03-27T01:53:48.342Z,71.76
2019-03-27T01:56:19.531Z,71.90
2019-03-27T01:58:50.934Z,72.32
2019-03-27T02:01:22.434Z,72.45
2019-03-27T02:03:54.658Z,72.50
2019-03-27T02:06:25.657Z,72.36
2019-03-27T02:08:57.049Z,72.38
2019-03-27T02:11:28.289Z,72.38
2019-03-27T02:13:59.578Z,72.15
2019-03-27T02:16:30.986Z,72.11
2019-03-27T02:19:02.594Z,72.09
2019-03-27T02:21:33.996Z,72.48
2019-03-27T02:24:06.299Z,72.66
2019-03-27T02:26:37.531Z,72.57
2019-03-27T02:29:08.959Z,72.53
2019-03-27T02:31:40.008Z,72.76
2019-03-27T02:34:11.192Z,72.71
2019-03-27T02:36:42.402Z,72.98
2019-03-27T02:39:13.504Z,73.09
2019-03-27T02:41:45.781Z,73.01
2019-03-27T02:44:17.777Z,73.07
2019-03-27T02:46:48.880Z,72.92
2019-03-27T02:49:19.914Z,72.85
2019-03-27T02:51:51.022Z,72.38
2019-03-27T02:54:22.202Z,72.43
2019-03-27T02:56:53.581Z,72.36
2019-03-27T02:59:25.716Z,72.56
2019-03-27T03:01:56.822Z,72.33
2019-03-27T03:04:28.170Z,72.28
2019-03-27T03:06:59.316Z,72.56
2019-03-27T03:09:30.482Z,72.48
2019-03-27T03:12:01.940Z,72.51
2019-03-27T03:14:33.460Z,72.44
2019-03-27T03:17:04.547Z,72.51
2019-03-27T03:19:35.872Z,72.10
2019-03-27T03:22:07.277Z,71.78
2019-03-27T03:24:38.591Z,71.56
2019-03-27T03:27:11.387Z,71.49
2019-03-27T03:29:43.172Z,71.48
2019-03-27T03:32:14.598Z,71.64
2019-03-27T03:34:46.126Z,71.72
2019-03-27T03:37:17.657Z,71.66
2019-03-27T03:39:49.098Z,71.70
2019-03-27T03:42:20.466Z,71.28
2019-03-27T03:44:52.846Z,70.96
2019-03-27T03:47:24.074Z,70.54
2019-03-27T03:49:55.423Z,69.90
2019-03-27T03:52:26.736Z,69.47
2019-03-27T03:54:57.952Z,69.28
2019-03-27T03:57:28.975Z,68.45
2019-03-27T04:00:00.504Z,68.44
2019-03-27T04:02:32.179Z,68.23
2019-03-27T04:05:03.997Z,68.13
2019-03-27T04:07:36.027Z,67.66
2019-03-27T04:10:07.556Z,67.41
2019-03-27T04:12:38.672Z,66.99
2019-03-27T04:15:09.793Z,67.01
2019-03-27T04:17:41.263Z,67.10
2019-03-27T04:20:13.410Z,66.36
2019-03-27T04:22:44.459Z,65.88
2019-03-27T04:25:15.698Z,65.75
2019-03-27T04:27:47.045Z,65.74
2019-03-27T04:30:19.770Z,65.20
2019-03-27T04:32:51.073Z,65.13
2019-03-27T04:35:22.216Z,64.32
2019-03-27T04:37:53.583Z,63.66
2019-03-27T04:40:24.786Z,64.27
2019-03-27T04:42:56.033Z,63.00
2019-03-27T04:45:29.289Z,62.05
2019-03-27T04:48:08.655Z,61.62
2019-03-27T04:50:40.039Z,60.96
2019-03-27T04:53:11.113Z,60.85
2019-03-27T04:55:42.353Z,59.75
2019-03-27T04:58:13.877Z,59.44
2019-03-27T05:00:45.171Z,58.11
2019-03-27T05:03:16.598Z,59.26
2019-03-27T05:05:48.653Z,58.55
2019-03-27T05:08:19.706Z,57.71
2019-03-27T05:10:50.893Z,57.65
2019-03-27T05:13:22.037Z,55.90
2019-03-27T05:15:53.183Z,55.76
2019-03-27T05:18:24.362Z,55.46
2019-03-27T05:20:55.503Z,55.70
2019-03-27T05:23:26.700Z,54.86
2019-03-27T05:25:57.960Z,54.60
2019-03-27T05:28:30.114Z,54.94
2019-03-27T05:31:01.509Z,54.40
2019-03-27T05:33:32.957Z,53.77
2019-03-27T05:36:05.032Z,53.69
2019-03-27T05:38:36.151Z,53.43
2019-03-27T05:41:07.305Z,53.41
2019-03-27T05:43:38.529Z,52.87
2019-03-27T05:46:14.468Z,52.39
2019-03-27T05:48:46.472Z,52.24
2019-03-27T05:51:19.898Z,50.94
2019-03-27T05:53:53.023Z,50.66
2019-03-27T05:56:24.156Z,50.30
2019-03-27T05:58:55.631Z,50.03
2019-03-27T06:01:26.887Z,50.00
2019-03-27T06:03:58.133Z,49.39
2019-03-27T06:06:29.481Z,49.43
2019-03-27T06:09:06.386Z,48.66
2019-03-27T06:11:37.646Z,48.11
2019-03-27T06:14:09.476Z,47.63
2019-03-27T06:16:40.757Z,46.74
2019-03-27T06:19:12.664Z,47.02
2019-03-27T06:21:45.767Z,47.33
2019-03-27T06:24:17.430Z,47.08
2019-03-27T06:26:48.811Z,46.72
2019-03-27T06:29:19.976Z,46.00
2019-03-27T06:31:51.505Z,45.32
2019-03-27T06:34:22.570Z,44.99
2019-03-27T06:36:54.085Z,45.21
2019-03-27T06:39:25.311Z,45.96
2019-03-27T06:41:59.491Z,45.49
2019-03-27T06:44:32.207Z,42.75
2019-03-27T06:47:04.483Z,42.30
2019-03-27T06:49:36.203Z,41.57
2019-03-27T06:52:09.186Z,39.95
2019-03-27T06:54:42.401Z,39.51
2019-03-27T06:57:14.575Z,37.51
2019-03-27T06:59:45.808Z,37.57
2019-03-27T07:02:16.918Z,37.65
2019-03-27T07:04:48.138Z,37.50
2019-03-27T07:07:19.346Z,37.10
2019-03-27T07:09:50.934Z,36.34
2019-03-27T07:12:22.169Z,36.13
2019-03-27T07:14:53.263Z,36.70
2019-03-27T07:17:25.045Z,37.35
2019-03-27T07:19:56.390Z,37.19
2019-03-27T07:22:37.974Z,36.23
2019-03-27T07:25:09.353Z,34.36
2019-03-27T07:27:40.581Z,34.22
2019-03-27T07:30:11.575Z,34.11
2019-03-27T07:32:43.823Z,34.46
2019-03-27T07:35:15.343Z,34.43
2019-03-27T07:37:46.513Z,34.87
2019-03-27T07:40:18.278Z,35.25
2019-03-27T07:42:51.029Z,35.87
2019-03-27T07:45:22.105Z,35.56
2019-03-27T07:47:53.341Z,34.84
2019-03-27T07:50:24.489Z,34.46
2019-03-27T07:52:59.415Z,34.36
2019-03-27T07:55:34.943Z,34.59
2019-03-27T07:58:07.127Z,34.38
2019-03-27T08:00:40.137Z,34.64
2019-03-27T08:03:11.529Z,34.88
2019-03-27T08:05:43.948Z,35.05
2019-03-27T08:08:15.189Z,34.69
2019-03-27T08:10:46.760Z,34.56
2019-03-27T08:13:17.842Z,34.65
2019-03-27T08:15:49.952Z,34.35
2019-03-27T08:18:28.023Z,34.48
2019-03-27T08:20:59.406Z,35.01
2019-03-27T08:23:30.927Z,34.17
2019-03-27T08:26:01.927Z,34.25
2019-03-27T08:28:33.527Z,34.58
2019-03-27T08:31:04.958Z,35.11
2019-03-27T08:33:36.640Z,35.65
2019-03-27T08:36:08.784Z,35.58
2019-03-27T08:38:41.889Z,35.14
2019-03-27T08:41:13.097Z,35.02
2019-03-27T08:43:46.906Z,35.08
2019-03-27T08:46:24.346Z,35.25
2019-03-27T08:48:56.755Z,35.49
2019-03-27T08:51:28.153Z,35.47
2019-03-27T08:53:59.539Z,35.22
2019-03-27T08:56:34.184Z,35.31
2019-03-27T08:59:06.204Z,34.38
2019-03-27T09:01:37.541Z,33.86
2019-03-27T09:04:08.948Z,33.97
2019-03-27T09:06:40.980Z,35.09
2019-03-27T09:09:12.996Z,37.29
2019-03-27T09:11:44.061Z,39.04
2019-03-27T09:14:16.208Z,39.77
2019-03-27T09:16:47.651Z,40.41
2019-03-27T09:19:19.344Z,40.52
2019-03-27T09:21:50.429Z,40.80
2019-03-27T09:24:58.093Z,40.52
2019-03-27T09:27:55.677Z,40.11
2019-03-27T09:30:38.402Z,39.68
2019-03-27T09:33:36.563Z,38.96
2019-03-27T09:36:08.241Z,38.43
2019-03-27T09:38:39.441Z,37.74
2019-03-27T09:41:23.217Z,35.99
2019-03-27T09:43:54.818Z,35.51
2019-03-27T09:46:28.268Z,35.95
2019-03-27T09:49:00.835Z,35.44
2019-03-27T09:51:32.333Z,34.01
2019-03-27T09:54:03.872Z,32.27
2019-03-27T09:56:35.455Z,32.65
2019-03-27T09:59:06.745Z,33.36
2019-03-27T10:01:38.178Z,32.03
2019-03-27T10:04:09.270Z,32.85
2019-03-27T10:06:40.650Z,33.07
2019-03-27T10:09:15.611Z,33.34
2019-03-27T10:11:52.340Z,34.61
2019-03-27T10:14:23.929Z,35.08
2019-03-27T10:16:56.218Z,34.03
2019-03-27T10:19:28.201Z,33.52
2019-03-27T10:22:00.588Z,33.14
2019-03-27T10:24:33.777Z,32.82
2019-03-27T10:27:10.377Z,32.66
2019-03-27T10:29:41.862Z,33.72
2019-03-27T10:32:13.275Z,34.50
2019-03-27T10:34:46.009Z,34.95
2019-03-27T10:37:17.557Z,34.78
2019-03-27T10:39:50.132Z,35.08
2019-03-27T10:42:23.853Z,34.92
2019-03-27T10:44:56.849Z,35.19
2019-03-27T10:47:32.492Z,35.51
2019-03-27T10:50:17.045Z,35.58
2019-03-27T10:52:41.710Z,36.01
2019-03-27T10:55:13.260Z,35.06
2019-03-27T10:57:44.460Z,34.52
2019-03-27T11:00:19.957Z,35.19
2019-03-27T11:05:50.392Z,35.17
2019-03-27T11:08:28.887Z,35.00
2019-03-27T11:11:00.649Z,34.54
2019-03-27T11:13:34.426Z,35.09
2019-03-27T11:16:05.600Z,35.37
2019-03-27T11:18:38.806Z,35.63
2019-03-27T11:21:10.311Z,35.36
2019-03-27T11:23:42.591Z,36.31
2019-03-27T11:26:14.072Z,36.23
2019-03-27T11:28:45.251Z,36.24
2019-03-27T11:31:17.611Z,36.55
2019-03-27T11:33:51.493Z,36.55
2019-03-27T11:36:22.638Z,36.51
2019-03-27T11:38:53.942Z,36.47
2019-03-27T11:41:25.338Z,36.28
2019-03-27T11:43:57.945Z,36.08
2019-03-27T11:46:32.072Z,36.35
2019-03-27T11:49:02.013Z,35.63
2019-03-27T11:51:34.457Z,36.45
2019-03-27T11:54:08.479Z,36.88
2019-03-27T11:56:39.013Z,37.21
2019-03-27T12:01:52.313Z,38.00
2019-03-27T12:04:24.945Z,37.82
2019-03-27T12:06:56.910Z,37.93
2019-03-27T12:09:28.085Z,38.60
2019-03-27T12:12:02.828Z,38.91
2019-03-27T12:14:39.300Z,39.50
2019-03-27T12:17:15.126Z,40.45
2019-03-27T12:19:46.208Z,41.25
2019-03-27T12:22:21.401Z,44.38
2019-03-27T12:25:00.495Z,45.84
2019-03-27T12:27:38.486Z,47.61
2019-03-27T12:30:09.946Z,49.58
2019-03-27T12:32:43.152Z,51.20
2019-03-27T12:35:14.676Z,52.93
2019-03-27T12:37:46.580Z,54.13
2019-03-27T12:40:18.048Z,57.52
2019-03-27T12:42:49.361Z,59.63
2019-03-27T12:45:20.635Z,61.16
2019-03-27T12:47:53.970Z,62.55
2019-03-27T12:50:25.540Z,63.33
2019-03-27T12:52:58.961Z,62.88
2019-03-27T12:55:30.086Z,63.02
2019-03-27T12:58:02.148Z,63.00
2019-03-27T13:00:33.322Z,63.63
2019-03-27T13:03:05.591Z,64.67
2019-03-27T13:05:36.855Z,65.94
2019-03-27T13:08:08.098Z,67.03
2019-03-27T13:10:39.172Z,66.76
2019-03-27T13:13:10.367Z,67.60
2019-03-27T13:15:50.202Z,68.39
2019-03-27T13:18:22.842Z,69.34
2019-03-27T13:20:54.721Z,69.38
2019-03-27T13:23:26.176Z,69.85
2019-03-27T13:25:57.650Z,70.97
2019-03-27T13:28:29.063Z,70.36
2019-03-27T13:31:00.409Z,71.26
2019-03-27T13:33:33.100Z,71.36
2019-03-27T13:36:05.037Z,71.86
2019-03-27T13:38:37.700Z,72.63
2019-03-27T13:41:09.232Z,72.42
2019-03-27T13:43:41.871Z,72.79
2019-03-27T13:46:18.244Z,72.45
2019-03-27T13:48:49.976Z,72.67
2019-03-27T13:51:22.443Z,73.03
2019-03-27T13:53:57.155Z,72.75
2019-03-27T13:56:28.349Z,72.63
2019-03-27T13:58:59.806Z,73.25
2019-03-27T14:01:31.453Z,73.22
2019-03-27T14:04:02.810Z,73.59
2019-03-27T14:06:35.222Z,72.95
2019-03-27T14:09:07.703Z,72.96
2019-03-27T14:11:44.859Z,73.29
2019-03-27T14:14:17.759Z,73.35
2019-03-27T14:16:57.309Z,73.57
2019-03-27T14:19:28.812Z,74.06
2019-03-27T14:22:00.031Z,74.80
2019-03-27T14:24:36.563Z,74.87
2019-03-27T14:27:07.821Z,74.85
2019-03-27T14:29:40.196Z,74.87
2019-03-27T14:32:13.335Z,74.93
2019-03-27T14:34:44.530Z,74.71
2019-03-27T14:37:16.581Z,75.34
2019-03-27T14:39:53.764Z,75.63
2019-03-27T14:42:26.696Z,76.30
2019-03-27T14:44:58.016Z,76.59
2019-03-27T14:47:30.783Z,76.78
2019-03-27T14:50:02.133Z,76.72
2019-03-27T14:52:33.543Z,76.83
2019-03-27T14:55:07.459Z,76.94
2019-03-27T14:57:44.611Z,77.34
2019-03-27T15:00:16.809Z,77.12
2019-03-27T15:02:49.197Z,77.78
2019-03-27T15:05:21.447Z,77.68
2019-03-27T15:07:57.543Z,77.99
2019-03-27T15:10:28.968Z,78.53
2019-03-27T15:13:00.263Z,78.56
2019-03-27T15:15:31.806Z,78.87
2019-03-27T15:18:04.212Z,78.92
2019-03-27T15:20:35.847Z,78.99
2019-03-27T15:23:07.417Z,79.29
2019-03-27T15:25:39.865Z,79.55
2019-03-27T15:28:12.784Z,79.82
2019-03-27T15:30:48.326Z,79.98
2019-03-27T15:33:23.058Z,80.15
2019-03-27T15:35:54.944Z,80.45
2019-03-27T15:38:26.495Z,80.88
2019-03-27T15:41:00.222Z,81.07
2019-03-27T15:43:31.745Z,81.18
2019-03-27T15:46:03.052Z,81.21
2019-03-27T15:48:35.311Z,81.43
2019-03-27T15:51:08.947Z,81.49
2019-03-27T15:53:42.588Z,81.38
2019-03-27T15:56:15.141Z,81.53
2019-03-27T15:58:46.466Z,82.03
2019-03-27T16:01:19.348Z,82.28
2019-03-27T16:03:51.577Z,83.18
2019-03-27T16:06:25.867Z,83.43
2019-03-27T16:08:59.446Z,83.73
2019-03-27T16:11:33.284Z,83.96
2019-03-27T16:14:05.818Z,84.04
2019-03-27T16:16:37.402Z,84.32
2019-03-27T16:19:11.003Z,84.46
2019-03-27T16:21:42.520Z,84.56
2019-03-27T16:24:13.887Z,84.82
2019-03-27T16:26:58.440Z,84.83
2019-03-27T16:29:19.455Z,84.75
2019-03-27T16:31:50.765Z,84.87
2019-03-27T16:34:25.133Z,85.12
2019-03-27T16:36:55.082Z,85.21
2019-03-27T16:39:28.292Z,85.29
2019-03-27T16:41:59.623Z,85.52
2019-03-27T16:44:31.068Z,85.64
2019-03-27T16:47:03.142Z,85.60
2019-03-27T16:49:34.437Z,85.53
2019-03-27T16:52:06.023Z,85.46
2019-03-27T16:54:37.445Z,85.60
2019-03-27T16:57:28.935Z,85.76
2019-03-27T17:00:00.372Z,85.86
2019-03-27T17:02:31.913Z,85.90
2019-03-27T17:05:05.071Z,86.01
2019-03-27T17:07:37.382Z,86.20
2019-03-27T17:10:08.543Z,86.38
2019-03-27T17:12:39.876Z,86.58
2019-03-27T17:15:11.224Z,86.54
2019-03-27T17:17:43.692Z,86.57
2019-03-27T17:20:15.940Z,86.58
2019-03-27T17:22:47.743Z,86.58
2019-03-27T17:25:25.697Z,86.52
2019-03-27T17:27:58.983Z,86.49
2019-03-27T17:30:31.962Z,86.40
2019-03-27T17:33:03.737Z,86.34
2019-03-27T17:35:35.156Z,86.47
2019-03-27T17:38:06.597Z,86.54
2019-03-27T17:40:38.137Z,86.50
2019-03-27T17:43:09.357Z,86.47
2019-03-27T17:45:40.544Z,86.40
2019-03-27T17:48:12.244Z,86.26
2019-03-27T17:50:44.504Z,86.39
2019-03-27T17:53:30.732Z,86.54
2019-03-27T17:55:52.761Z,86.57
2019-03-27T17:58:24.942Z,86.46
2019-03-27T18:00:57.374Z,86.45
2019-03-27T18:03:29.411Z,86.41
2019-03-27T18:06:00.381Z,86.42
2019-03-27T18:08:33.783Z,86.39
2019-03-27T18:11:08.146Z,86.44
2019-03-27T18:13:38.486Z,86.46
2019-03-27T18:16:10.871Z,86.41
2019-03-27T18:18:42.343Z,86.44
2019-03-27T18:21:14.130Z,86.42
2019-03-27T18:23:46.806Z,86.29
2019-03-27T18:26:18.764Z,86.29
2019-03-27T18:28:50.036Z,86.18
2019-03-27T18:31:21.212Z,86.40
2019-03-27T18:33:52.501Z,86.31
2019-03-27T18:36:24.823Z,86.38
2019-03-27T18:38:58.001Z,86.31
2019-03-27T18:41:29.032Z,86.07
2019-03-27T18:44:03.195Z,85.87
2019-03-27T18:46:34.510Z,86.02
2019-03-27T18:49:15.647Z,86.19
2019-03-27T18:51:46.893Z,86.30
2019-03-27T18:54:19.121Z,86.39
2019-03-27T18:56:51.246Z,86.58
2019-03-27T18:59:31.396Z,86.68
2019-03-27T19:02:08.018Z,86.84
2019-03-27T19:04:40.276Z,86.91
2019-03-27T19:07:13.054Z,86.86
2019-03-27T19:09:45.239Z,86.99
2019-03-27T19:12:18.350Z,87.10
2019-03-27T19:14:50.279Z,87.08
2019-03-27T19:17:22.475Z,86.99
2019-03-27T19:19:53.866Z,86.80
2019-03-27T19:22:25.180Z,86.89
2019-03-27T19:24:56.456Z,86.94
2019-03-27T19:27:28.431Z,87.06
2019-03-27T19:29:59.852Z,87.11
2019-03-27T19:32:34.353Z,87.20
2019-03-27T19:35:05.951Z,87.24
2019-03-27T19:37:41.051Z,87.29
2019-03-27T19:40:12.235Z,87.26
2019-03-27T19:42:44.887Z,87.24
2019-03-27T19:45:16.449Z,87.36
2019-03-27T19:47:47.896Z,87.32
2019-03-27T19:50:19.486Z,87.32
2019-03-27T19:52:50.536Z,87.42
2019-03-27T19:55:21.796Z,87.21
2019-03-27T19:57:53.035Z,87.07
2019-03-27T20:00:25.430Z,87.08
2019-03-27T20:02:56.643Z,87.16
2019-03-27T20:05:29.796Z,87.23
2019-03-27T20:08:01.132Z,87.06
2019-03-27T20:10:37.283Z,86.98
2019-03-27T20:13:18.568Z,87.01
2019-03-27T20:15:50.137Z,87.01
2019-03-27T20:18:21.314Z,86.94
2019-03-27T20:20:52.602Z,86.92
2019-03-27T20:23:23.754Z,86.89
2019-03-27T20:25:54.989Z,86.85
2019-03-27T20:28:26.035Z,86.93
2019-03-27T20:30:57.282Z,86.90
2019-03-27T20:33:28.469Z,86.88
2019-03-27T20:36:02.960Z,86.83
2019-03-27T20:38:34.262Z,86.85
2019-03-27T20:41:05.357Z,86.78
2019-03-27T20:43:39.323Z,86.75
2019-03-27T20:46:24.004Z,86.74
2019-03-27T20:48:43.312Z,86.78
2019-03-27T20:51:14.537Z,87.06
2019-03-27T20:53:45.691Z,87.23
2019-03-27T20:56:16.934Z,87.33
2019-03-27T20:58:48.151Z,87.42
2019-03-27T21:01:23.530Z,87.50
2019-03-27T21:03:54.747Z,87.55
2019-03-27T21:06:27.863Z,87.33
2019-03-27T21:09:01.369Z,87.12
2019-03-27T21:11:34.757Z,87.02
2019-03-27T21:14:07.816Z,86.94
2019-03-27T21:16:39.027Z,86.81
2019-03-27T21:19:11.541Z,86.71
2019-03-27T21:21:42.993Z,86.57
2019-03-27T21:24:14.811Z,86.42
2019-03-27T21:26:46.881Z,86.22
2019-03-27T21:29:19.729Z,86.18
2019-03-27T21:31:51.194Z,86.34
2019-03-27T21:34:22.390Z,86.41
2019-03-27T21:36:54.283Z,86.51
2019-03-27T21:39:26.341Z,86.39
2019-03-27T21:41:57.839Z,86.34
2019-03-27T21:44:29.426Z,86.30
2019-03-27T21:47:00.709Z,86.37
2019-03-27T21:49:33.216Z,86.29
2019-03-27T21:52:04.504Z,86.19
2019-03-27T21:54:36.851Z,86.13
2019-03-27T21:57:10.019Z,86.16
2019-03-27T21:59:41.171Z,86.30
2019-03-27T22:02:13.397Z,86.37
2019-03-27T22:04:44.944Z,86.41
2019-03-27T22:07:19.378Z,86.43
2019-03-27T22:09:50.959Z,86.40
2019-03-27T22:12:23.509Z,86.41
2019-03-27T22:14:54.727Z,86.36
2019-03-27T22:17:26.239Z,86.26
2019-03-27T22:19:57.942Z,86.36
2019-03-27T22:22:29.291Z,86.54
2019-03-27T22:25:05.385Z,86.67
2019-03-27T22:27:36.561Z,86.61
2019-03-27T22:30:08.058Z,86.67
2019-03-27T22:32:42.069Z,86.68
2019-03-27T22:35:13.248Z,86.62
2019-03-27T22:37:44.687Z,86.67
2019-03-27T22:40:16.075Z,86.75
2019-03-27T22:42:47.472Z,86.83
2019-03-27T22:45:21.637Z,86.87
2019-03-27T22:47:52.758Z,86.94
2019-03-27T22:50:24.070Z,86.98
2019-03-27T22:52:55.213Z,87.00
2019-03-27T22:55:26.627Z,86.99
2019-03-27T22:57:57.826Z,86.94
2019-03-27T23:00:45.867Z,86.99
2019-03-27T23:03:18.973Z,87.14
2019-03-27T23:05:50.265Z,87.55
2019-03-27T23:08:21.543Z,87.55
2019-03-27T23:10:52.827Z,87.32
2019-03-27T23:13:25.994Z,87.26
2019-03-27T23:15:57.197Z,87.28
2019-03-27T23:18:28.441Z,87.26
2019-03-27T23:20:59.573Z,87.20
2019-03-27T23:23:30.720Z,87.10
2019-03-27T23:26:03.403Z,86.92
2019-03-27T23:28:34.841Z,86.96
2019-03-27T23:31:06.003Z,87.12
2019-03-27T23:33:37.138Z,87.32
2019-03-27T23:36:08.406Z,87.30
2019-03-27T23:38:39.631Z,87.09
2019-03-27T23:41:10.838Z,87.01
2019-03-27T23:43:41.940Z,86.85
2019-03-27T23:46:13.145Z,86.57
2019-03-27T23:48:45.512Z,86.23
2019-03-27T23:51:16.782Z,86.00
2019-03-27T23:53:47.876Z,86.07
2019-03-27T23:56:18.842Z,85.99
2019-03-27T23:58:49.919Z,85.84
